sensor_id;sensor_type;location;lat;lon;timestamp;pressure;altitude;pressure_sealevel;temperature;humidity
62248;BME280;48237;50.140;8.486;2023-02-01T00:02:12;100041.19;;;6.16;90.56
62248;BME280;48237;50.140;8.486;2023-02-01T00:04:39;100038.12;;;6.31;91.06
62248;BME280;48237;50.140;8.486;2023-02-01T00:07:06;100043.07;;;5.80;93.34
62248;BME280;48237;50.140;8.486;2023-02-01T00:09:33;100043.18;;;5.19;97.10
62248;BME280;48237;50.140;8.486;2023-02-01T00:12:00;100036.55;;;6.42;91.96
62248;BME280;48237;50.140;8.486;2023-02-01T00:14:27;100039.27;;;6.28;92.06
62248;BME280;48237;50.140;8.486;2023-02-01T00:16:55;100034.75;;;6.14;92.04
62248;BME280;48237;50.140;8.486;2023-02-01T00:19:22;100038.36;;;6.04;97.01
62248;BME280;48237;50.140;8.486;2023-02-01T00:21:49;100032.99;;;6.70;90.71
62248;BME280;48237;50.140;8.486;2023-02-01T00:24:17;100026.21;;;5.89;97.20
62248;BME280;48237;50.140;8.486;2023-02-01T00:26:45;100022.08;;;6.32;93.16
62248;BME280;48237;50.140;8.486;2023-02-01T00:29:14;100027.80;;;5.73;97.05
62248;BME280;48237;50.140;8.486;2023-02-01T00:31:43;100030.98;;;5.81;97.98
62248;BME280;48237;50.140;8.486;2023-02-01T00:34:11;100033.49;;;5.57;99.20
62248;BME280;48237;50.140;8.486;2023-02-01T00:36:38;100033.06;;;5.04;100.00
62248;BME280;48237;50.140;8.486;2023-02-01T00:39:05;100017.34;;;5.33;100.00
62248;BME280;48237;50.140;8.486;2023-02-01T00:41:33;100015.95;;;5.51;100.00
62248;BME280;48237;50.140;8.486;2023-02-01T00:44:00;100012.05;;;5.88;99.70
62248;BME280;48237;50.140;8.486;2023-02-01T00:46:28;100005.55;;;5.70;97.78
62248;BME280;48237;50.140;8.486;2023-02-01T00:48:56;100004.49;;;6.30;94.76
62248;BME280;48237;50.140;8.486;2023-02-01T00:51:25;100002.94;;;5.38;99.82
62248;BME280;48237;50.140;8.486;2023-02-01T00:53:52;100012.88;;;5.82;95.92
62248;BME280;48237;50.140;8.486;2023-02-01T00:56:19;100013.38;;;5.98;96.42
62248;BME280;48237;50.140;8.486;2023-02-01T00:58:46;100010.73;;;6.59;93.68
62248;BME280;48237;50.140;8.486;2023-02-01T01:01:15;100021.34;;;6.10;93.40
62248;BME280;48237;50.140;8.486;2023-02-01T01:03:44;100020.12;;;6.23;95.19
62248;BME280;48237;50.140;8.486;2023-02-01T01:06:14;100023.76;;;5.94;94.54
62248;BME280;48237;50.140;8.486;2023-02-01T01:08:42;100022.63;;;5.63;98.06
62248;BME280;48237;50.140;8.486;2023-02-01T01:11:12;100026.85;;;5.22;100.00
62248;BME280;48237;50.140;8.486;2023-02-01T01:13:40;100018.48;;;5.26;100.00
62248;BME280;48237;50.140;8.486;2023-02-01T01:16:09;100019.02;;;6.00;99.60
62248;BME280;48237;50.140;8.486;2023-02-01T01:18:37;100013.96;;;5.68;99.14
62248;BME280;48237;50.140;8.486;2023-02-01T01:21:06;100012.67;;;5.67;99.69
62248;BME280;48237;50.140;8.486;2023-02-01T01:23:34;100011.02;;;5.62;100.00
62248;BME280;48237;50.140;8.486;2023-02-01T01:26:05;100017.81;;;5.73;100.00
62248;BME280;48237;50.140;8.486;2023-02-01T01:28:33;100022.23;;;5.08;100.00
62248;BME280;48237;50.140;8.486;2023-02-01T01:31:00;100017.39;;;5.47;100.00
62248;BME280;48237;50.140;8.486;2023-02-01T01:33:28;100016.27;;;5.52;100.00
62248;BME280;48237;50.140;8.486;2023-02-01T01:35:55;100018.11;;;5.52;100.00
62248;BME280;48237;50.140;8.486;2023-02-01T01:38:23;100011.60;;;5.06;100.00
62248;BME280;48237;50.140;8.486;2023-02-01T01:40:50;100011.36;;;5.35;100.00
62248;BME280;48237;50.140;8.486;2023-02-01T01:43:19;100007.72;;;5.26;100.00
62248;BME280;48237;50.140;8.486;2023-02-01T01:45:46;100001.84;;;5.67;100.00
62248;BME280;48237;50.140;8.486;2023-02-01T01:48:27;99996.72;;;5.94;97.63
62248;BME280;48237;50.140;8.486;2023-02-01T01:50:58;99998.32;;;5.99;98.62
62248;BME280;48237;50.140;8.486;2023-02-01T01:53:33;99995.40;;;5.96;97.67
62248;BME280;48237;50.140;8.486;2023-02-01T01:56:03;99994.32;;;5.84;98.41
62248;BME280;48237;50.140;8.486;2023-02-01T01:58:33;99995.30;;;5.75;99.18
62248;BME280;48237;50.140;8.486;2023-02-01T02:01:00;99995.03;;;5.32;100.00
62248;BME280;48237;50.140;8.486;2023-02-01T02:03:32;99986.23;;;5.76;100.00
62248;BME280;48237;50.140;8.486;2023-02-01T02:06:02;99982.21;;;5.22;100.00
62248;BME280;48237;50.140;8.486;2023-02-01T02:08:32;99970.99;;;5.32;100.00
62248;BME280;48237;50.140;8.486;2023-02-01T02:11:01;99970.20;;;5.25;100.00
62248;BME280;48237;50.140;8.486;2023-02-01T02:13:37;99968.61;;;5.47;100.00
62248;BME280;48237;50.140;8.486;2023-02-01T02:16:20;99973.95;;;5.39;100.00
62248;BME280;48237;50.140;8.486;2023-02-01T02:19:00;99972.24;;;5.40;100.00
62248;BME280;48237;50.140;8.486;2023-02-01T02:21:43;99968.97;;;5.88;100.00
62248;BME280;48237;50.140;8.486;2023-02-01T02:24:34;99968.21;;;5.75;100.00
62248;BME280;48237;50.140;8.486;2023-02-01T02:27:15;99966.89;;;5.64;100.00
62248;BME280;48237;50.140;8.486;2023-02-01T02:30:34;99971.27;;;5.34;100.00
62248;BME280;48237;50.140;8.486;2023-02-01T02:34:14;99961.22;;;6.22;100.00
62248;BME280;48237;50.140;8.486;2023-02-01T02:36:54;99968.15;;;6.01;98.36
62248;BME280;48237;50.140;8.486;2023-02-01T02:39:32;99973.52;;;5.63;99.80
62248;BME280;48237;50.140;8.486;2023-02-01T02:42:07;99981.29;;;5.35;100.00
62248;BME280;48237;50.140;8.486;2023-02-01T02:44:47;99975.40;;;5.83;100.00
62248;BME280;48237;50.140;8.486;2023-02-01T02:47:22;99979.60;;;5.20;100.00
62248;BME280;48237;50.140;8.486;2023-02-01T02:49:57;99972.43;;;5.16;100.00
62248;BME280;48237;50.140;8.486;2023-02-01T02:52:25;99968.46;;;5.61;100.00
62248;BME280;48237;50.140;8.486;2023-02-01T02:54:55;99965.34;;;4.84;100.00
62248;BME280;48237;50.140;8.486;2023-02-01T02:57:26;99960.59;;;5.45;100.00
62248;BME280;48237;50.140;8.486;2023-02-01T02:59:57;99957.45;;;6.02;97.74
62248;BME280;48237;50.140;8.486;2023-02-01T03:02:27;99955.97;;;5.88;97.82
62248;BME280;48237;50.140;8.486;2023-02-01T03:04:56;99954.07;;;5.85;98.31
62248;BME280;48237;50.140;8.486;2023-02-01T03:10:09;99950.76;;;5.45;100.00
62248;BME280;48237;50.140;8.486;2023-02-01T03:12:39;99937.75;;;5.86;98.01
62248;BME280;48237;50.140;8.486;2023-02-01T03:15:11;99942.77;;;5.75;98.49
62248;BME280;48237;50.140;8.486;2023-02-01T03:17:42;99932.08;;;5.83;99.77
62248;BME280;48237;50.140;8.486;2023-02-01T03:20:13;99933.85;;;5.90;98.01
62248;BME280;48237;50.140;8.486;2023-02-01T03:22:43;99938.93;;;6.57;93.99
62248;BME280;48237;50.140;8.486;2023-02-01T03:25:13;99932.31;;;6.04;95.65
62248;BME280;48237;50.140;8.486;2023-02-01T03:27:47;99928.84;;;5.76;96.58
62248;BME280;48237;50.140;8.486;2023-02-01T03:30:19;99919.19;;;5.84;96.53
62248;BME280;48237;50.140;8.486;2023-02-01T03:32:49;99923.74;;;6.12;94.70
62248;BME280;48237;50.140;8.486;2023-02-01T03:35:18;99924.90;;;4.85;100.00
62248;BME280;48237;50.140;8.486;2023-02-01T03:37:47;99928.98;;;4.68;99.71
62248;BME280;48237;50.140;8.486;2023-02-01T03:40:15;99925.15;;;5.68;97.01
62248;BME280;48237;50.140;8.486;2023-02-01T03:42:48;99929.17;;;5.37;98.06
62248;BME280;48237;50.140;8.486;2023-02-01T03:45:22;99926.77;;;6.06;95.02
62248;BME280;48237;50.140;8.486;2023-02-01T03:47:54;99930.42;;;6.26;93.74
62248;BME280;48237;50.140;8.486;2023-02-01T03:50:24;99928.91;;;5.99;94.74
62248;BME280;48237;50.140;8.486;2023-02-01T03:52:56;99932.23;;;6.09;95.12
62248;BME280;48237;50.140;8.486;2023-02-01T03:55:25;99931.59;;;5.91;96.29
62248;BME280;48237;50.140;8.486;2023-02-01T03:57:57;99919.71;;;6.26;95.15
62248;BME280;48237;50.140;8.486;2023-02-01T04:00:27;99922.63;;;6.43;94.60
62248;BME280;48237;50.140;8.486;2023-02-01T04:02:55;99921.51;;;6.66;93.64
62248;BME280;48237;50.140;8.486;2023-02-01T04:05:22;99923.54;;;6.59;92.75
62248;BME280;48237;50.140;8.486;2023-02-01T04:07:50;99933.85;;;6.84;90.48
62248;BME280;48237;50.140;8.486;2023-02-01T04:10:17;99934.08;;;6.04;98.15
62248;BME280;48237;50.140;8.486;2023-02-01T04:12:44;99934.46;;;6.00;97.82
62248;BME280;48237;50.140;8.486;2023-02-01T04:15:11;99931.07;;;5.89;100.00
62248;BME280;48237;50.140;8.486;2023-02-01T04:17:38;99928.09;;;6.05;100.00
62248;BME280;48237;50.140;8.486;2023-02-01T04:20:06;99927.13;;;6.54;97.42
62248;BME280;48237;50.140;8.486;2023-02-01T04:22:33;99923.18;;;5.67;99.73
62248;BME280;48237;50.140;8.486;2023-02-01T04:25:01;99918.17;;;5.55;100.00
62248;BME280;48237;50.140;8.486;2023-02-01T04:27:28;99927.55;;;6.45;95.02
62248;BME280;48237;50.140;8.486;2023-02-01T04:29:55;99930.54;;;7.04;91.81
62248;BME280;48237;50.140;8.486;2023-02-01T04:32:22;99934.14;;;6.98;90.55
62248;BME280;48237;50.140;8.486;2023-02-01T04:34:50;99932.65;;;6.19;93.17
62248;BME280;48237;50.140;8.486;2023-02-01T04:37:17;99931.37;;;5.68;96.86
62248;BME280;48237;50.140;8.486;2023-02-01T04:39:44;99933.79;;;6.85;91.13
62248;BME280;48237;50.140;8.486;2023-02-01T04:42:11;99932.42;;;6.81;90.63
62248;BME280;48237;50.140;8.486;2023-02-01T04:44:37;99931.80;;;6.27;92.07
62248;BME280;48237;50.140;8.486;2023-02-01T04:47:04;99931.34;;;6.49;92.01
62248;BME280;48237;50.140;8.486;2023-02-01T04:49:31;99933.60;;;5.88;94.69
62248;BME280;48237;50.140;8.486;2023-02-01T04:51:58;99928.93;;;5.64;98.13
62248;BME280;48237;50.140;8.486;2023-02-01T04:54:25;99927.90;;;6.01;96.21
62248;BME280;48237;50.140;8.486;2023-02-01T04:56:52;99924.86;;;5.85;95.91
62248;BME280;48237;50.140;8.486;2023-02-01T04:59:20;99932.87;;;5.05;100.00
62248;BME280;48237;50.140;8.486;2023-02-01T05:01:46;99929.65;;;5.96;96.36
62248;BME280;48237;50.140;8.486;2023-02-01T05:04:14;99924.31;;;5.92;96.07
62248;BME280;48237;50.140;8.486;2023-02-01T05:06:41;99923.84;;;5.86;96.79
62248;BME280;48237;50.140;8.486;2023-02-01T05:09:08;99923.01;;;6.18;93.07
62248;BME280;48237;50.140;8.486;2023-02-01T05:11:35;99914.82;;;6.11;93.18
62248;BME280;48237;50.140;8.486;2023-02-01T05:14:01;99910.07;;;5.26;99.99
62248;BME280;48237;50.140;8.486;2023-02-01T05:16:28;99913.37;;;6.35;92.87
62248;BME280;48237;50.140;8.486;2023-02-01T05:18:55;99907.92;;;6.36;92.95
62248;BME280;48237;50.140;8.486;2023-02-01T05:21:22;99901.88;;;6.61;90.67
62248;BME280;48237;50.140;8.486;2023-02-01T05:23:49;99899.54;;;6.35;91.30
62248;BME280;48237;50.140;8.486;2023-02-01T05:26:16;99901.13;;;6.26;91.11
62248;BME280;48237;50.140;8.486;2023-02-01T05:28:43;99907.40;;;6.24;90.20
62248;BME280;48237;50.140;8.486;2023-02-01T05:31:10;99920.98;;;6.57;89.18
62248;BME280;48237;50.140;8.486;2023-02-01T05:33:38;99927.39;;;7.01;89.80
62248;BME280;48237;50.140;8.486;2023-02-01T05:36:05;99920.78;;;6.47;90.35
62248;BME280;48237;50.140;8.486;2023-02-01T05:38:33;99919.49;;;6.47;91.69
62248;BME280;48237;50.140;8.486;2023-02-01T05:40:59;99919.48;;;6.24;92.24
62248;BME280;48237;50.140;8.486;2023-02-01T05:43:27;99917.57;;;6.39;92.24
62248;BME280;48237;50.140;8.486;2023-02-01T05:45:54;99911.53;;;5.90;94.74
62248;BME280;48237;50.140;8.486;2023-02-01T05:48:21;99905.45;;;5.72;92.75
62248;BME280;48237;50.140;8.486;2023-02-01T05:50:48;99899.68;;;6.29;88.30
62248;BME280;48237;50.140;8.486;2023-02-01T05:53:16;99903.28;;;6.62;85.42
62248;BME280;48237;50.140;8.486;2023-02-01T05:55:43;99901.21;;;5.62;88.76
62248;BME280;48237;50.140;8.486;2023-02-01T05:58:10;99907.67;;;6.05;86.94
62248;BME280;48237;50.140;8.486;2023-02-01T06:00:37;99912.82;;;5.94;89.05
62248;BME280;48237;50.140;8.486;2023-02-01T06:03:05;99912.33;;;5.59;88.90
62248;BME280;48237;50.140;8.486;2023-02-01T06:05:32;99909.64;;;5.59;86.63
62248;BME280;48237;50.140;8.486;2023-02-01T06:07:59;99914.45;;;6.31;84.73
62248;BME280;48237;50.140;8.486;2023-02-01T06:10:26;99915.07;;;6.07;83.86
62248;BME280;48237;50.140;8.486;2023-02-01T06:12:54;99915.90;;;6.13;83.12
62248;BME280;48237;50.140;8.486;2023-02-01T06:15:21;99917.38;;;6.30;83.31
62248;BME280;48237;50.140;8.486;2023-02-01T06:17:48;99913.24;;;4.82;90.24
62248;BME280;48237;50.140;8.486;2023-02-01T06:20:16;99907.62;;;6.06;85.90
62248;BME280;48237;50.140;8.486;2023-02-01T06:22:43;99913.02;;;6.15;85.67
62248;BME280;48237;50.140;8.486;2023-02-01T06:25:10;99919.54;;;5.65;86.07
62248;BME280;48237;50.140;8.486;2023-02-01T06:27:37;99919.73;;;6.37;84.74
62248;BME280;48237;50.140;8.486;2023-02-01T06:30:06;99917.02;;;5.27;89.13
62248;BME280;48237;50.140;8.486;2023-02-01T06:32:33;99920.97;;;5.37;88.77
62248;BME280;48237;50.140;8.486;2023-02-01T06:35:00;99916.67;;;4.43;90.97
62248;BME280;48237;50.140;8.486;2023-02-01T06:37:27;99912.98;;;5.89;84.69
62248;BME280;48237;50.140;8.486;2023-02-01T06:39:55;99918.21;;;5.32;86.31
62248;BME280;48237;50.140;8.486;2023-02-01T06:42:22;99911.53;;;5.32;87.00
62248;BME280;48237;50.140;8.486;2023-02-01T06:44:49;99900.64;;;5.76;84.74
62248;BME280;48237;50.140;8.486;2023-02-01T06:47:16;99898.97;;;5.54;85.12
62248;BME280;48237;50.140;8.486;2023-02-01T06:49:44;99908.91;;;5.59;85.87
62248;BME280;48237;50.140;8.486;2023-02-01T06:52:11;99921.58;;;5.68;85.54
62248;BME280;48237;50.140;8.486;2023-02-01T06:54:38;99919.40;;;5.92;80.31
62248;BME280;48237;50.140;8.486;2023-02-01T06:57:05;99926.42;;;5.08;85.00
62248;BME280;48237;50.140;8.486;2023-02-01T06:59:32;99925.79;;;4.60;85.87
62248;BME280;48237;50.140;8.486;2023-02-01T07:01:59;99924.58;;;5.32;82.79
62248;BME280;48237;50.140;8.486;2023-02-01T07:04:26;99919.46;;;5.45;82.40
62248;BME280;48237;50.140;8.486;2023-02-01T07:06:53;99905.41;;;5.30;83.40
62248;BME280;48237;50.140;8.486;2023-02-01T07:09:20;99899.80;;;5.17;84.97
62248;BME280;48237;50.140;8.486;2023-02-01T07:11:47;99901.08;;;4.88;85.09
62248;BME280;48237;50.140;8.486;2023-02-01T07:14:14;99905.22;;;5.05;82.92
62248;BME280;48237;50.140;8.486;2023-02-01T07:16:42;99906.71;;;5.40;82.01
62248;BME280;48237;50.140;8.486;2023-02-01T07:19:09;99907.19;;;4.57;85.90
62248;BME280;48237;50.140;8.486;2023-02-01T07:21:36;99907.65;;;5.10;84.57
62248;BME280;48237;50.140;8.486;2023-02-01T07:24:03;99906.88;;;5.16;82.42
62248;BME280;48237;50.140;8.486;2023-02-01T07:26:31;99906.68;;;5.76;80.34
62248;BME280;48237;50.140;8.486;2023-02-01T07:28:58;99908.89;;;5.09;83.06
62248;BME280;48237;50.140;8.486;2023-02-01T07:31:25;99910.34;;;4.75;83.08
62248;BME280;48237;50.140;8.486;2023-02-01T07:33:52;99918.31;;;5.05;84.43
62248;BME280;48237;50.140;8.486;2023-02-01T07:36:19;99925.31;;;4.84;83.25
62248;BME280;48237;50.140;8.486;2023-02-01T07:38:47;99929.64;;;4.77;83.19
62248;BME280;48237;50.140;8.486;2023-02-01T07:41:15;99941.09;;;4.11;85.37
62248;BME280;48237;50.140;8.486;2023-02-01T07:43:43;99949.73;;;4.47;83.26
62248;BME280;48237;50.140;8.486;2023-02-01T07:46:11;99951.53;;;4.63;82.29
62248;BME280;48237;50.140;8.486;2023-02-01T07:48:39;99955.41;;;5.10;81.21
62248;BME280;48237;50.140;8.486;2023-02-01T07:51:09;99962.43;;;4.68;81.71
62248;BME280;48237;50.140;8.486;2023-02-01T07:53:37;99958.56;;;4.12;85.71
62248;BME280;48237;50.140;8.486;2023-02-01T07:56:10;99957.76;;;3.82;86.04
62248;BME280;48237;50.140;8.486;2023-02-01T07:58:37;99956.21;;;4.43;85.10
62248;BME280;48237;50.140;8.486;2023-02-01T08:01:04;99966.35;;;4.39;83.81
62248;BME280;48237;50.140;8.486;2023-02-01T08:03:32;99966.28;;;3.92;88.07
62248;BME280;48237;50.140;8.486;2023-02-01T08:05:59;99968.31;;;4.55;84.98
62248;BME280;48237;50.140;8.486;2023-02-01T08:08:26;99968.69;;;4.67;82.52
62248;BME280;48237;50.140;8.486;2023-02-01T08:10:57;99965.30;;;4.77;83.96
62248;BME280;48237;50.140;8.486;2023-02-01T08:13:24;99971.96;;;5.33;82.05
62248;BME280;48237;50.140;8.486;2023-02-01T08:15:51;99971.59;;;5.76;81.73
62248;BME280;48237;50.140;8.486;2023-02-01T08:18:19;99967.93;;;5.08;82.70
62248;BME280;48237;50.140;8.486;2023-02-01T08:20:46;99967.19;;;5.20;82.34
62248;BME280;48237;50.140;8.486;2023-02-01T08:23:13;99971.35;;;4.62;87.52
62248;BME280;48237;50.140;8.486;2023-02-01T08:25:40;99977.09;;;5.08;84.52
62248;BME280;48237;50.140;8.486;2023-02-01T08:28:07;99981.88;;;4.71;86.48
62248;BME280;48237;50.140;8.486;2023-02-01T08:30:34;99973.08;;;5.25;84.56
62248;BME280;48237;50.140;8.486;2023-02-01T08:33:03;99982.71;;;5.38;85.13
62248;BME280;48237;50.140;8.486;2023-02-01T08:35:30;99981.40;;;5.00;82.87
62248;BME280;48237;50.140;8.486;2023-02-01T08:37:57;99990.05;;;4.53;86.25
62248;BME280;48237;50.140;8.486;2023-02-01T08:40:24;99987.97;;;5.08;86.45
62248;BME280;48237;50.140;8.486;2023-02-01T08:42:51;99978.67;;;4.91;83.26
62248;BME280;48237;50.140;8.486;2023-02-01T08:45:18;99979.45;;;4.54;86.74
62248;BME280;48237;50.140;8.486;2023-02-01T08:47:46;99977.63;;;4.76;83.07
62248;BME280;48237;50.140;8.486;2023-02-01T08:50:13;99984.98;;;5.54;80.93
62248;BME280;48237;50.140;8.486;2023-02-01T08:52:40;99972.34;;;4.73;82.82
62248;BME280;48237;50.140;8.486;2023-02-01T08:55:08;99977.58;;;4.56;83.40
62248;BME280;48237;50.140;8.486;2023-02-01T08:57:35;99979.09;;;4.81;83.89
62248;BME280;48237;50.140;8.486;2023-02-01T09:00:04;99977.69;;;4.79;83.87
62248;BME280;48237;50.140;8.486;2023-02-01T09:02:32;99977.92;;;5.06;84.35
62248;BME280;48237;50.140;8.486;2023-02-01T09:05:00;99974.87;;;5.18;81.29
62248;BME280;48237;50.140;8.486;2023-02-01T09:07:27;99981.51;;;5.30;82.99
62248;BME280;48237;50.140;8.486;2023-02-01T09:09:54;99970.89;;;4.91;82.69
62248;BME280;48237;50.140;8.486;2023-02-01T09:12:21;99971.97;;;4.70;82.18
62248;BME280;48237;50.140;8.486;2023-02-01T09:14:48;99973.78;;;5.14;82.02
62248;BME280;48237;50.140;8.486;2023-02-01T09:17:15;99982.10;;;5.12;81.78
62248;BME280;48237;50.140;8.486;2023-02-01T09:19:42;99980.73;;;5.42;83.48
62248;BME280;48237;50.140;8.486;2023-02-01T09:22:09;99989.07;;;4.86;83.00
62248;BME280;48237;50.140;8.486;2023-02-01T09:24:36;99989.17;;;4.92;83.58
62248;BME280;48237;50.140;8.486;2023-02-01T09:27:03;99994.27;;;4.72;81.39
62248;BME280;48237;50.140;8.486;2023-02-01T09:29:30;100003.48;;;4.89;83.50
62248;BME280;48237;50.140;8.486;2023-02-01T09:31:56;100008.98;;;5.62;79.80
62248;BME280;48237;50.140;8.486;2023-02-01T09:34:24;100014.66;;;5.80;77.49
62248;BME280;48237;50.140;8.486;2023-02-01T09:36:51;100020.38;;;5.66;77.44
62248;BME280;48237;50.140;8.486;2023-02-01T09:39:18;100025.14;;;4.85;79.68
62248;BME280;48237;50.140;8.486;2023-02-01T09:41:55;100011.11;;;4.80;83.56
62248;BME280;48237;50.140;8.486;2023-02-01T09:44:35;100013.94;;;4.63;83.41
62248;BME280;48237;50.140;8.486;2023-02-01T09:47:11;100019.06;;;5.09;80.79
62248;BME280;48237;50.140;8.486;2023-02-01T09:49:47;100026.62;;;5.36;81.77
62248;BME280;48237;50.140;8.486;2023-02-01T09:52:19;100025.16;;;4.67;80.28
62248;BME280;48237;50.140;8.486;2023-02-01T09:54:54;100016.74;;;4.96;80.82
62248;BME280;48237;50.140;8.486;2023-02-01T09:57:25;100017.26;;;5.43;78.76
62248;BME280;48237;50.140;8.486;2023-02-01T10:00:00;100019.78;;;5.02;78.56
62248;BME280;48237;50.140;8.486;2023-02-01T10:02:28;100012.39;;;4.86;79.83
62248;BME280;48237;50.140;8.486;2023-02-01T10:04:58;100011.85;;;4.97;80.27
62248;BME280;48237;50.140;8.486;2023-02-01T10:07:33;100012.33;;;5.39;78.49
62248;BME280;48237;50.140;8.486;2023-02-01T10:10:09;100005.29;;;5.36;77.21
62248;BME280;48237;50.140;8.486;2023-02-01T10:13:52;100002.06;;;6.08;76.04
62248;BME280;48237;50.140;8.486;2023-02-01T10:16:31;99999.76;;;5.32;76.45
62248;BME280;48237;50.140;8.486;2023-02-01T10:19:16;99996.83;;;5.48;78.34
62248;BME280;48237;50.140;8.486;2023-02-01T10:21:54;99986.35;;;5.61;75.04
62248;BME280;48237;50.140;8.486;2023-02-01T10:24:38;99981.26;;;6.15;74.94
62248;BME280;48237;50.140;8.486;2023-02-01T10:27:14;99979.58;;;5.84;74.81
62248;BME280;48237;50.140;8.486;2023-02-01T10:29:46;99971.58;;;5.55;76.42
62248;BME280;48237;50.140;8.486;2023-02-01T10:32:17;99975.01;;;5.64;77.64
62248;BME280;48237;50.140;8.486;2023-02-01T10:34:47;99968.17;;;5.87;78.29
62248;BME280;48237;50.140;8.486;2023-02-01T10:37:24;99970.58;;;6.01;75.50
62248;BME280;48237;50.140;8.486;2023-02-01T10:39:54;99969.20;;;6.71;72.30
62248;BME280;48237;50.140;8.486;2023-02-01T10:42:25;99963.85;;;6.18;75.10
62248;BME280;48237;50.140;8.486;2023-02-01T10:44:54;99969.08;;;6.19;77.06
62248;BME280;48237;50.140;8.486;2023-02-01T10:47:23;99960.84;;;6.18;75.78
62248;BME280;48237;50.140;8.486;2023-02-01T10:49:56;99961.57;;;5.60;78.48
62248;BME280;48237;50.140;8.486;2023-02-01T10:52:34;99949.53;;;5.63;77.20
62248;BME280;48237;50.140;8.486;2023-02-01T10:55:39;99947.96;;;5.30;77.03
62248;BME280;48237;50.140;8.486;2023-02-01T10:58:16;99940.77;;;5.68;78.32
62248;BME280;48237;50.140;8.486;2023-02-01T11:00:47;99936.69;;;5.90;78.94
62248;BME280;48237;50.140;8.486;2023-02-01T11:03:33;99948.33;;;6.03;76.68
62248;BME280;48237;50.140;8.486;2023-02-01T11:06:04;99941.53;;;5.49;77.23
62248;BME280;48237;50.140;8.486;2023-02-01T11:08:42;99938.92;;;5.38;78.21
62248;BME280;48237;50.140;8.486;2023-02-01T11:11:09;99930.60;;;5.53;77.54
62248;BME280;48237;50.140;8.486;2023-02-01T11:13:38;99934.19;;;5.35;79.97
62248;BME280;48237;50.140;8.486;2023-02-01T11:16:08;99934.23;;;5.45;77.47
62248;BME280;48237;50.140;8.486;2023-02-01T11:18:38;99932.24;;;6.14;75.43
62248;BME280;48237;50.140;8.486;2023-02-01T11:21:07;99935.87;;;6.57;74.07
62248;BME280;48237;50.140;8.486;2023-02-01T11:23:40;99929.84;;;5.50;77.04
62248;BME280;48237;50.140;8.486;2023-02-01T11:26:12;99930.03;;;5.80;76.77
62248;BME280;48237;50.140;8.486;2023-02-01T11:28:47;99933.21;;;6.30;74.23
62248;BME280;48237;50.140;8.486;2023-02-01T11:31:18;99927.27;;;6.35;74.00
62248;BME280;48237;50.140;8.486;2023-02-01T11:33:50;99922.73;;;6.32;74.38
62248;BME280;48237;50.140;8.486;2023-02-01T11:36:22;99926.75;;;6.09;75.23
62248;BME280;48237;50.140;8.486;2023-02-01T11:38:53;99931.60;;;6.67;72.28
62248;BME280;48237;50.140;8.486;2023-02-01T11:41:23;99935.69;;;6.73;71.69
62248;BME280;48237;50.140;8.486;2023-02-01T11:43:54;99926.99;;;6.75;72.42
62248;BME280;48237;50.140;8.486;2023-02-01T11:46:26;99926.07;;;6.79;71.26
62248;BME280;48237;50.140;8.486;2023-02-01T11:48:55;99930.62;;;6.39;71.72
62248;BME280;48237;50.140;8.486;2023-02-01T11:51:37;99925.49;;;6.47;72.95
62248;BME280;48237;50.140;8.486;2023-02-01T11:54:21;99927.05;;;6.48;73.20
62248;BME280;48237;50.140;8.486;2023-02-01T11:57:04;99916.59;;;6.47;72.37
62248;BME280;48237;50.140;8.486;2023-02-01T11:59:50;99927.50;;;6.56;72.86
62248;BME280;48237;50.140;8.486;2023-02-01T12:02:45;99924.27;;;6.40;72.29
62248;BME280;48237;50.140;8.486;2023-02-01T12:05:27;99918.00;;;6.17;72.08
62248;BME280;48237;50.140;8.486;2023-02-01T12:08:07;99916.31;;;6.47;71.07
62248;BME280;48237;50.140;8.486;2023-02-01T12:10:47;99923.91;;;6.36;72.81
62248;BME280;48237;50.140;8.486;2023-02-01T12:13:29;99909.44;;;6.20;72.85
62248;BME280;48237;50.140;8.486;2023-02-01T12:16:06;99903.25;;;6.50;72.78
62248;BME280;48237;50.140;8.486;2023-02-01T12:18:51;99917.35;;;6.06;74.18
62248;BME280;48237;50.140;8.486;2023-02-01T12:21:31;99911.98;;;6.00;72.57
62248;BME280;48237;50.140;8.486;2023-02-01T12:24:24;99914.54;;;6.17;72.13
62248;BME280;48237;50.140;8.486;2023-02-01T12:27:06;99907.45;;;5.85;74.93
62248;BME280;48237;50.140;8.486;2023-02-01T12:30:00;99916.53;;;5.87;76.57
62248;BME280;48237;50.140;8.486;2023-02-01T12:32:41;99915.12;;;6.45;71.72
62248;BME280;48237;50.140;8.486;2023-02-01T12:35:23;99905.94;;;6.46;71.42
62248;BME280;48237;50.140;8.486;2023-02-01T12:38:08;99899.51;;;6.96;70.12
62248;BME280;48237;50.140;8.486;2023-02-01T12:40:50;99898.38;;;6.42;69.64
62248;BME280;48237;50.140;8.486;2023-02-01T12:43:22;99902.69;;;6.51;71.25
62248;BME280;48237;50.140;8.486;2023-02-01T12:45:55;99894.18;;;7.03;70.58
62248;BME280;48237;50.140;8.486;2023-02-01T12:48:29;99886.52;;;7.19;69.36
62248;BME280;48237;50.140;8.486;2023-02-01T12:51:02;99896.11;;;6.85;70.21
62248;BME280;48237;50.140;8.486;2023-02-01T12:53:40;99896.32;;;6.33;71.74
62248;BME280;48237;50.140;8.486;2023-02-01T12:56:12;99893.42;;;6.54;72.12
62248;BME280;48237;50.140;8.486;2023-02-01T12:58:44;99892.79;;;6.81;70.43
62248;BME280;48237;50.140;8.486;2023-02-01T13:01:18;99888.40;;;6.65;71.02
62248;BME280;48237;50.140;8.486;2023-02-01T13:03:55;99881.04;;;6.72;73.64
62248;BME280;48237;50.140;8.486;2023-02-01T13:06:27;99883.25;;;6.79;70.28
62248;BME280;48237;50.140;8.486;2023-02-01T13:09:02;99881.22;;;6.31;72.77
62248;BME280;48237;50.140;8.486;2023-02-01T13:11:32;99877.14;;;6.47;70.86
62248;BME280;48237;50.140;8.486;2023-02-01T13:14:05;99876.67;;;5.76;75.95
62248;BME280;48237;50.140;8.486;2023-02-01T13:16:38;99878.11;;;5.63;73.08
62248;BME280;48237;50.140;8.486;2023-02-01T13:19:14;99886.80;;;6.43;72.62
62248;BME280;48237;50.140;8.486;2023-02-01T13:21:46;99885.39;;;6.51;70.66
62248;BME280;48237;50.140;8.486;2023-02-01T13:24:24;99886.38;;;6.56;72.86
62248;BME280;48237;50.140;8.486;2023-02-01T13:26:54;99872.40;;;6.28;70.58
62248;BME280;48237;50.140;8.486;2023-02-01T13:29:23;99886.80;;;6.72;69.17
62248;BME280;48237;50.140;8.486;2023-02-01T13:32:09;99889.17;;;6.53;69.59